createdAt,value
2018-09-20T00:00:46.602Z,6.60
2018-09-20T00:03:15.361Z,6.97
2018-09-20T00:05:44.009Z,6.90
2018-09-20T00:08:12.693Z,6.57
2018-09-20T00:10:41.390Z,7.23
2018-09-20T00:13:10.082Z,7.40
2018-09-20T00:15:38.722Z,7.33
2018-09-20T00:18:07.618Z,7.30
2018-09-20T00:20:36.277Z,7.20
2018-09-20T00:23:04.958Z,7.27
2018-09-20T00:25:33.694Z,7.50
2018-09-20T00:28:02.364Z,7.93
2018-09-20T00:30:31.074Z,7.07
2018-09-20T00:32:59.783Z,7.17
2018-09-20T00:35:28.505Z,7.03
2018-09-20T00:37:57.159Z,7.07
2018-09-20T00:40:25.850Z,5.37
2018-09-20T00:42:54.520Z,6.20
2018-09-20T00:45:23.247Z,6.80
2018-09-20T00:47:51.943Z,6.70
2018-09-20T00:50:20.694Z,6.27
2018-09-20T00:52:49.351Z,6.40
2018-09-20T00:55:18.038Z,6.80
2018-09-20T00:57:46.723Z,7.13
2018-09-20T01:00:15.444Z,7.00
2018-09-20T01:02:44.171Z,7.43
2018-09-20T01:05:12.877Z,7.70
2018-09-20T01:07:41.690Z,7.47
2018-09-20T01:10:10.431Z,7.33
2018-09-20T01:12:39.100Z,8.00
2018-09-20T01:15:08.257Z,7.27
2018-09-20T01:17:37.247Z,8.10
2018-09-20T01:20:06.044Z,8.10
2018-09-20T01:22:34.760Z,8.53
2018-09-20T01:25:03.520Z,7.87
2018-09-20T01:27:32.182Z,7.63
2018-09-20T01:30:00.883Z,7.93
2018-09-20T01:32:29.612Z,7.63
2018-09-20T01:34:58.260Z,7.97
2018-09-20T01:37:26.969Z,7.70
2018-09-20T01:39:55.618Z,7.70
2018-09-20T01:42:24.300Z,8.73
2018-09-20T01:44:52.981Z,8.80
2018-09-20T01:47:21.632Z,8.23
2018-09-20T01:49:50.322Z,8.30
2018-09-20T01:52:18.991Z,8.30
2018-09-20T01:54:47.705Z,9.10
2018-09-20T01:57:16.434Z,8.30
2018-09-20T01:59:45.122Z,9.20
2018-09-20T02:02:13.838Z,7.70
2018-09-20T02:04:42.502Z,7.40
2018-09-20T02:07:11.265Z,7.20
2018-09-20T02:09:39.920Z,7.77
2018-09-20T02:12:08.613Z,8.47
2018-09-20T02:14:37.320Z,9.13
2018-09-20T02:17:06.046Z,8.20
2018-09-20T02:19:34.701Z,9.30
2018-09-20T02:22:03.419Z,9.13
2018-09-20T02:24:32.090Z,8.90
2018-09-20T02:27:00.790Z,8.80
2018-09-20T02:29:29.509Z,8.30
2018-09-20T02:31:58.170Z,8.53
2018-09-20T02:34:26.838Z,8.37
2018-09-20T02:36:55.545Z,8.57
2018-09-20T02:39:24.269Z,8.83
2018-09-20T02:41:53.001Z,9.33
2018-09-20T02:44:21.702Z,8.50
2018-09-20T02:46:50.417Z,8.10
2018-09-20T02:49:19.106Z,8.93
2018-09-20T02:51:47.846Z,8.37
2018-09-20T02:54:16.553Z,7.87
2018-09-20T02:56:45.225Z,7.83
2018-09-20T02:59:13.943Z,7.83
2018-09-20T03:01:42.637Z,8.57
2018-09-20T03:04:11.315Z,7.93
2018-09-20T03:06:39.973Z,8.53
2018-09-20T03:09:10.251Z,8.57
2018-09-20T03:11:38.911Z,8.27
2018-09-20T03:14:07.911Z,8.40
2018-09-20T03:16:36.560Z,8.23
2018-09-20T03:19:05.742Z,8.17
2018-09-20T03:21:34.357Z,8.80
2018-09-20T03:24:03.034Z,8.27
2018-09-20T03:26:31.748Z,7.20
2018-09-20T03:29:00.405Z,7.17
2018-09-20T03:31:29.056Z,6.90
2018-09-20T03:33:57.733Z,7.00
2018-09-20T03:36:26.344Z,7.00
2018-09-20T03:38:55.002Z,6.70
2018-09-20T03:41:23.644Z,6.83
2018-09-20T03:43:52.370Z,6.80
2018-09-20T03:46:21.039Z,7.17
2018-09-20T03:48:49.841Z,6.93
2018-09-20T03:51:18.544Z,7.30
2018-09-20T03:53:47.234Z,6.93
2018-09-20T03:56:15.876Z,7.70
2018-09-20T03:58:44.581Z,6.83
2018-09-20T04:01:13.204Z,7.30
2018-09-20T04:03:41.904Z,7.83
2018-09-20T04:06:10.529Z,7.20
2018-09-20T04:08:39.238Z,6.97
2018-09-20T04:11:07.868Z,7.30
2018-09-20T04:13:36.546Z,6.63
2018-09-20T04:16:05.263Z,7.63
2018-09-20T04:18:33.940Z,7.13
2018-09-20T04:21:02.574Z,8.03
2018-09-20T04:23:31.212Z,8.60
2018-09-20T04:25:59.881Z,9.20
2018-09-20T04:28:28.506Z,8.60
2018-09-20T04:30:57.212Z,8.23
2018-09-20T04:33:25.863Z,9.07
2018-09-20T04:35:54.540Z,8.33
2018-09-20T04:38:23.161Z,7.97
2018-09-20T04:40:51.810Z,6.97
2018-09-20T04:43:20.512Z,8.60
2018-09-20T04:45:49.299Z,7.90
2018-09-20T04:48:17.981Z,7.87
2018-09-20T04:50:46.667Z,7.43
2018-09-20T04:53:15.397Z,7.63
2018-09-20T04:55:44.028Z,8.30
2018-09-20T04:58:12.729Z,7.63
2018-09-20T05:00:41.399Z,7.63
2018-09-20T05:03:10.121Z,6.87
2018-09-20T05:05:38.801Z,6.20
2018-09-20T05:08:07.499Z,7.43
2018-09-20T05:10:36.320Z,7.50
2018-09-20T05:13:05.061Z,6.50
2018-09-20T05:15:33.803Z,8.33
2018-09-20T05:18:02.621Z,7.73
2018-09-20T05:20:31.387Z,8.10
2018-09-20T05:23:00.060Z,7.50
2018-09-20T05:25:28.757Z,7.93
2018-09-20T05:27:57.440Z,7.00
2018-09-20T05:30:26.149Z,7.47
2018-09-20T05:32:54.880Z,7.53
2018-09-20T05:35:23.614Z,6.93
2018-09-20T05:37:52.304Z,6.23
2018-09-20T05:40:20.996Z,7.37
2018-09-20T05:42:50.027Z,8.53
2018-09-20T05:45:18.732Z,7.77
2018-09-20T05:47:47.592Z,7.10
2018-09-20T05:50:16.316Z,6.60
2018-09-20T05:52:45.049Z,6.73
2018-09-20T05:55:14.058Z,7.17
2018-09-20T05:57:42.693Z,7.90
2018-09-20T06:00:11.421Z,7.80
2018-09-20T06:02:40.167Z,7.30
2018-09-20T06:05:08.903Z,8.67
2018-09-20T06:07:37.606Z,8.07
2018-09-20T06:10:06.526Z,7.93
2018-09-20T06:12:35.229Z,7.60
2018-09-20T06:15:04.041Z,7.63
2018-09-20T06:17:32.737Z,7.90
2018-09-20T06:20:01.445Z,7.77
2018-09-20T06:22:30.064Z,8.60
2018-09-20T06:24:58.744Z,8.97
2018-09-20T06:27:27.418Z,9.10
2018-09-20T06:29:56.114Z,8.40
2018-09-20T06:32:24.777Z,8.47
2018-09-20T06:34:53.541Z,8.37
2018-09-20T06:37:22.144Z,7.90
2018-09-20T06:39:50.774Z,7.60
2018-09-20T06:42:19.436Z,7.03
2018-09-20T06:44:48.054Z,7.63
2018-09-20T06:47:16.720Z,8.47
2018-09-20T06:49:45.392Z,8.10
2018-09-20T06:52:14.044Z,8.00
2018-09-20T06:54:42.686Z,7.47
2018-09-20T06:57:11.371Z,7.23
2018-09-20T06:59:40.014Z,7.53
2018-09-20T07:02:08.737Z,7.27
2018-09-20T07:04:37.412Z,6.83
2018-09-20T07:07:06.026Z,6.70
2018-09-20T07:09:34.741Z,6.60
2018-09-20T07:12:03.358Z,6.10
2018-09-20T07:14:31.974Z,6.10
2018-09-20T07:17:00.691Z,5.93
2018-09-20T07:19:29.328Z,5.50
2018-09-20T07:21:58.122Z,5.43
2018-09-20T07:24:26.798Z,5.80
2018-09-20T07:26:55.520Z,5.43
2018-09-20T07:29:24.258Z,5.30
2018-09-20T07:31:52.977Z,5.43
2018-09-20T07:34:21.644Z,5.40
2018-09-20T07:36:50.314Z,5.90
2018-09-20T07:39:19.021Z,5.43
2018-09-20T07:41:47.709Z,5.37
2018-09-20T07:44:16.413Z,4.80
2018-09-20T07:46:45.080Z,4.90
2018-09-20T07:49:13.801Z,4.97
2018-09-20T07:51:42.470Z,4.47
2018-09-20T07:54:17.842Z,5.07
2018-09-20T07:56:46.604Z,4.33
2018-09-20T07:59:15.225Z,4.43
2018-09-20T08:01:44.047Z,4.87
2018-09-20T08:04:12.678Z,4.90
2018-09-20T08:06:41.356Z,5.10
2018-09-20T08:09:11.476Z,4.53
2018-09-20T08:11:40.145Z,4.67
2018-09-20T08:14:08.817Z,4.77
2018-09-20T08:16:37.504Z,4.83
2018-09-20T08:19:06.321Z,5.17
2018-09-20T08:21:35.045Z,4.57
2018-09-20T08:24:03.719Z,5.07
2018-09-20T08:26:32.387Z,4.90
2018-09-20T08:29:01.082Z,4.57
2018-09-20T08:31:29.766Z,4.77
2018-09-20T08:33:58.441Z,4.93
2018-09-20T08:36:27.131Z,5.50
2018-09-20T08:38:55.800Z,5.43
2018-09-20T08:41:24.426Z,4.80
2018-09-20T08:43:53.054Z,4.40
2018-09-20T08:46:21.729Z,4.60
2018-09-20T08:48:50.382Z,4.70
2018-09-20T08:51:19.031Z,4.90
2018-09-20T08:53:47.708Z,4.47
2018-09-20T08:56:16.386Z,4.33
2018-09-20T08:58:45.014Z,4.53
2018-09-20T09:01:13.658Z,4.03
2018-09-20T09:03:42.353Z,4.50
2018-09-20T09:06:11.075Z,4.50
2018-09-20T09:08:39.707Z,4.20
2018-09-20T09:11:08.367Z,4.40
2018-09-20T09:13:37.045Z,4.20
2018-09-20T09:16:05.732Z,4.13
2018-09-20T09:18:34.373Z,4.50
2018-09-20T09:21:03.058Z,3.97
2018-09-20T09:23:31.710Z,4.07
2018-09-20T09:26:00.347Z,3.63
2018-09-20T09:28:28.973Z,3.47
2018-09-20T09:30:57.725Z,3.70
2018-09-20T09:33:26.430Z,4.10
2018-09-20T09:35:55.123Z,3.57
2018-09-20T09:38:23.839Z,3.60
2018-09-20T09:40:52.548Z,3.63
2018-09-20T09:43:21.197Z,3.23
2018-09-20T09:45:49.894Z,3.67
2018-09-20T09:48:18.813Z,3.90
2018-09-20T09:50:47.527Z,3.83
2018-09-20T09:53:16.212Z,3.80
2018-09-20T09:55:44.939Z,3.50
2018-09-20T09:58:13.597Z,4.03
2018-09-20T10:00:42.841Z,3.90
2018-09-20T10:03:11.522Z,4.00
2018-09-20T10:05:40.188Z,3.80
2018-09-20T10:08:08.907Z,3.47
2018-09-20T10:10:37.553Z,3.80
2018-09-20T10:13:06.554Z,5.93
2018-09-20T10:15:35.479Z,5.63
2018-09-20T10:18:04.173Z,4.73
2018-09-20T10:20:32.868Z,5.43
2018-09-20T10:23:01.573Z,6.10
2018-09-20T10:25:30.280Z,6.33
2018-09-20T10:27:59.041Z,7.93
2018-09-20T10:30:27.783Z,6.53
2018-09-20T10:32:56.431Z,4.80
2018-09-20T10:35:25.071Z,4.50
2018-09-20T10:37:54.129Z,4.50
2018-09-20T10:40:22.920Z,4.00
2018-09-20T10:42:51.548Z,3.97
2018-09-20T10:45:20.525Z,3.83
2018-09-20T10:47:49.266Z,3.80
2018-09-20T10:50:18.043Z,3.47
2018-09-20T10:52:46.721Z,3.60
2018-09-20T10:55:15.438Z,3.30
2018-09-20T10:57:44.232Z,4.10
2018-09-20T11:00:12.896Z,3.50
2018-09-20T11:02:41.721Z,3.30
2018-09-20T11:05:17.127Z,3.63
2018-09-20T11:07:45.980Z,3.73
2018-09-20T11:10:14.753Z,3.83
2018-09-20T11:12:43.442Z,3.50
2018-09-20T11:15:12.163Z,3.37
2018-09-20T11:17:40.906Z,3.77
2018-09-20T11:20:09.577Z,3.43
2018-09-20T11:22:38.370Z,3.63
2018-09-20T11:25:07.122Z,3.70
2018-09-20T11:27:35.777Z,2.97
2018-09-20T11:30:04.633Z,3.60
2018-09-20T11:32:33.344Z,3.37
2018-09-20T11:35:02.006Z,3.17
2018-09-20T11:37:30.684Z,3.40
2018-09-20T11:39:59.340Z,2.97
2018-09-20T11:42:28.221Z,3.33
2018-09-20T11:44:57.056Z,3.10
2018-09-20T11:47:25.749Z,3.33
2018-09-20T11:49:54.431Z,3.53
2018-09-20T11:52:23.135Z,3.20
2018-09-20T11:54:52.052Z,3.67
2018-09-20T11:57:21.098Z,3.43
2018-09-20T11:59:50.054Z,3.50
2018-09-20T12:02:18.784Z,3.17
2018-09-20T12:04:47.583Z,3.20
2018-09-20T12:07:16.364Z,3.23
2018-09-20T12:09:45.258Z,3.50
2018-09-20T12:12:13.974Z,3.00
2018-09-20T12:14:43.137Z,3.10
2018-09-20T12:17:11.928Z,3.30
2018-09-20T12:19:40.914Z,3.63
2018-09-20T12:22:10.209Z,2.87
2018-09-20T12:24:38.975Z,3.13
2018-09-20T12:27:07.732Z,2.80
2018-09-20T12:29:36.439Z,2.63
2018-09-20T12:32:05.173Z,2.97
2018-09-20T12:34:33.861Z,2.90
2018-09-20T12:37:02.564Z,2.53
2018-09-20T12:39:31.256Z,2.77
2018-09-20T12:42:00.015Z,2.83
2018-09-20T12:44:28.667Z,2.60
2018-09-20T12:46:57.389Z,2.80
2018-09-20T12:49:26.017Z,2.80
2018-09-20T12:51:54.715Z,3.03
2018-09-20T12:54:23.381Z,2.83
2018-09-20T12:56:52.128Z,3.00
2018-09-20T12:59:20.789Z,3.00
2018-09-20T13:01:49.477Z,2.47
2018-09-20T13:04:18.171Z,3.20
2018-09-20T13:06:46.895Z,2.70
2018-09-20T13:09:15.620Z,2.80
2018-09-20T13:11:44.319Z,2.80
2018-09-20T13:14:13.001Z,2.73
2018-09-20T13:16:41.709Z,2.60
2018-09-20T13:19:10.352Z,2.80
2018-09-20T13:21:39.066Z,3.27
2018-09-20T13:24:07.727Z,2.43
2018-09-20T13:26:36.431Z,3.40
2018-09-20T13:29:05.154Z,2.80
2018-09-20T13:31:33.831Z,3.10
2018-09-20T13:34:02.524Z,3.13
2018-09-20T13:36:31.221Z,3.17
2018-09-20T13:39:00.014Z,2.80
2018-09-20T13:41:28.716Z,2.50
2018-09-20T13:43:57.454Z,2.60
2018-09-20T13:46:26.146Z,2.90
2018-09-20T13:48:54.857Z,2.60
2018-09-20T13:51:23.540Z,2.50
2018-09-20T13:53:52.245Z,2.83
2018-09-20T13:56:20.931Z,2.90
2018-09-20T13:58:49.635Z,3.10
2018-09-20T14:01:18.625Z,2.63
2018-09-20T14:03:47.343Z,3.17
2018-09-20T14:06:16.150Z,2.27
2018-09-20T14:08:44.922Z,2.60
2018-09-20T14:11:13.677Z,2.70
2018-09-20T14:13:42.389Z,3.30
2018-09-20T14:16:11.131Z,2.53
2018-09-20T14:18:40.076Z,2.70
2018-09-20T14:21:08.883Z,2.53
2018-09-20T14:23:37.633Z,3.43
2018-09-20T14:26:06.401Z,2.70
2018-09-20T14:28:35.177Z,2.90
2018-09-20T14:31:03.869Z,2.50
2018-09-20T14:33:32.519Z,2.67
2018-09-20T14:36:01.264Z,2.57
2018-09-20T14:38:29.968Z,2.90
2018-09-20T14:40:58.695Z,2.60
2018-09-20T14:43:27.381Z,3.10
2018-09-20T14:45:56.093Z,3.10
2018-09-20T14:48:24.766Z,3.13
2018-09-20T14:50:53.520Z,2.93
2018-09-20T14:53:22.259Z,2.97
2018-09-20T14:55:50.969Z,2.40
2018-09-20T14:58:19.685Z,2.90
2018-09-20T15:00:48.788Z,2.57
2018-09-20T15:03:17.617Z,3.37
2018-09-20T15:05:46.266Z,2.90
2018-09-20T15:08:14.992Z,3.03
2018-09-20T15:10:43.654Z,2.80
2018-09-20T15:13:12.281Z,2.90
2018-09-20T15:15:41.016Z,2.80
2018-09-20T15:18:09.681Z,3.00
2018-09-20T15:20:38.338Z,3.27
2018-09-20T15:23:07.002Z,2.70
2018-09-20T15:25:35.649Z,3.33
2018-09-20T15:28:04.337Z,3.10
2018-09-20T15:30:33.018Z,3.37
2018-09-20T15:33:01.772Z,3.10
2018-09-20T15:35:30.487Z,3.27
2018-09-20T15:37:59.146Z,3.03
2018-09-20T15:40:27.796Z,2.93
2018-09-20T15:42:56.425Z,2.90
2018-09-20T15:45:25.098Z,2.97
2018-09-20T15:47:53.831Z,3.10
2018-09-20T15:50:22.442Z,2.93
2018-09-20T15:52:51.164Z,3.40
2018-09-20T15:55:19.864Z,2.70
2018-09-20T15:57:48.514Z,3.20
2018-09-20T16:00:17.196Z,2.80
2018-09-20T16:02:45.842Z,2.93
2018-09-20T16:05:14.544Z,3.13
2018-09-20T16:07:43.313Z,2.97
2018-09-20T16:10:12.013Z,2.90
2018-09-20T16:12:40.702Z,3.00
2018-09-20T16:15:09.380Z,3.00
2018-09-20T16:17:38.109Z,3.30
2018-09-20T16:20:07.590Z,2.93
2018-09-20T16:22:36.444Z,3.40
2018-09-20T16:25:05.607Z,2.87
2018-09-20T16:27:34.528Z,3.10
2018-09-20T16:30:13.298Z,3.03
2018-09-20T16:34:53.885Z,3.10
2018-09-20T16:37:43.622Z,3.13
2018-09-20T16:40:13.302Z,3.17
2018-09-20T16:42:43.785Z,3.03
2018-09-20T16:45:12.489Z,2.80
2018-09-20T16:47:41.207Z,2.90
2018-09-20T16:50:09.865Z,2.87
2018-09-20T16:52:39.011Z,2.87
2018-09-20T16:55:07.687Z,2.80
2018-09-20T16:57:36.329Z,3.30
2018-09-20T17:00:06.701Z,3.30
2018-09-20T17:02:35.457Z,3.23
2018-09-20T17:05:04.310Z,3.00
2018-09-20T17:07:33.000Z,3.13
2018-09-20T17:10:01.740Z,3.33
2018-09-20T17:12:30.379Z,3.17
2018-09-20T17:14:59.260Z,4.00
2018-09-20T17:17:27.838Z,3.50
2018-09-20T17:19:56.570Z,3.20
2018-09-20T17:22:25.284Z,3.53
2018-09-20T17:24:53.937Z,3.27
2018-09-20T17:27:56.189Z,3.23
2018-09-20T17:30:24.840Z,3.00
2018-09-20T17:32:53.564Z,3.77
2018-09-20T17:35:22.473Z,4.07
2018-09-20T17:37:51.814Z,3.10
2018-09-20T17:40:21.533Z,3.13
2018-09-20T17:42:52.458Z,3.30
2018-09-20T17:45:21.108Z,3.30
2018-09-20T17:47:49.793Z,3.27
2018-09-20T17:50:18.460Z,3.93
2018-09-20T17:52:47.808Z,4.20
2018-09-20T17:55:16.770Z,4.00
2018-09-20T17:57:45.978Z,3.83
2018-09-20T18:00:14.691Z,4.17
2018-09-20T18:02:43.431Z,3.97
2018-09-20T18:05:12.223Z,4.33
2018-09-20T18:07:40.977Z,4.10
2018-09-20T18:10:09.640Z,4.37
2018-09-20T18:12:38.333Z,4.10
2018-09-20T18:15:07.104Z,3.73
2018-09-20T18:17:35.886Z,4.10
2018-09-20T18:20:04.614Z,4.20
2018-09-20T18:22:33.379Z,4.20
2018-09-20T18:25:02.098Z,4.33
2018-09-20T18:27:30.755Z,4.47
2018-09-20T18:29:59.438Z,4.37
2018-09-20T18:32:28.130Z,4.23
2018-09-20T18:34:56.817Z,4.20
2018-09-20T18:37:25.545Z,3.70
2018-09-20T18:39:54.182Z,4.00
2018-09-20T18:42:22.898Z,4.10
2018-09-20T18:44:51.538Z,4.40
2018-09-20T18:47:20.174Z,4.23
2018-09-20T18:49:48.959Z,4.23
2018-09-20T18:52:17.686Z,4.40
2018-09-20T18:54:46.370Z,4.20
2018-09-20T18:57:15.110Z,4.80
2018-09-20T18:59:43.785Z,4.63
2018-09-20T19:02:12.481Z,4.80
2018-09-20T19:04:41.118Z,4.57
2018-09-20T19:07:10.896Z,4.90
2018-09-20T19:09:40.151Z,4.80
2018-09-20T19:12:08.824Z,4.83
2018-09-20T19:14:37.561Z,4.90
2018-09-20T19:17:06.314Z,4.53
2018-09-20T19:19:34.968Z,4.83
2018-09-20T19:22:03.681Z,4.43
2018-09-20T19:24:32.320Z,5.30
2018-09-20T19:27:00.957Z,4.90
2018-09-20T19:29:29.654Z,5.20
2018-09-20T19:31:58.377Z,4.67
2018-09-20T19:34:27.006Z,5.00
2018-09-20T19:36:55.722Z,5.17
2018-09-20T19:39:24.431Z,4.97
2018-09-20T19:41:53.138Z,5.30
2018-09-20T19:44:21.813Z,5.20
2018-09-20T19:46:50.506Z,5.20
2018-09-20T19:49:19.152Z,5.07
2018-09-20T19:51:47.912Z,4.57
2018-09-20T19:54:16.562Z,4.10
2018-09-20T19:56:45.238Z,4.33
2018-09-20T19:59:13.974Z,5.30
2018-09-20T20:01:42.683Z,5.70
2018-09-20T20:04:11.346Z,5.47
2018-09-20T20:06:40.082Z,5.90
2018-09-20T20:09:11.264Z,5.23
2018-09-20T20:11:40.496Z,5.77
2018-09-20T20:14:09.167Z,5.30
2018-09-20T20:16:38.098Z,5.20
2018-09-20T20:19:07.149Z,5.17
2018-09-20T20:21:35.882Z,4.80
2018-09-20T20:24:04.622Z,4.57
2018-09-20T20:26:33.258Z,4.37
2018-09-20T20:29:01.927Z,4.73
2018-09-20T20:31:30.567Z,4.57
2018-09-20T20:33:59.455Z,5.47
2018-09-20T20:36:28.322Z,6.13
2018-09-20T20:38:57.285Z,5.83
2018-09-20T20:41:25.961Z,6.30
2018-09-20T20:43:55.077Z,6.20
2018-09-20T20:46:23.733Z,6.40
2018-09-20T20:48:52.423Z,6.20
2018-09-20T20:51:21.102Z,6.20
2018-09-20T20:53:49.807Z,5.70
2018-09-20T20:56:19.232Z,6.00
2018-09-20T20:58:48.067Z,5.40
2018-09-20T21:01:20.776Z,5.80
2018-09-20T21:03:51.187Z,5.50
2018-09-20T21:06:20.024Z,5.33
2018-09-20T21:08:48.800Z,5.20
2018-09-20T21:11:17.583Z,5.17
2018-09-20T21:13:46.244Z,4.90
2018-09-20T21:16:14.977Z,4.80
2018-09-20T21:18:43.824Z,4.80
2018-09-20T21:21:12.544Z,5.00
2018-09-20T21:23:41.216Z,4.93
2018-09-20T21:26:09.917Z,5.00
2018-09-20T21:28:38.588Z,4.90
2018-09-20T21:31:07.229Z,4.83
2018-09-20T21:33:35.878Z,4.47
2018-09-20T21:36:04.541Z,4.70
2018-09-20T21:38:33.242Z,4.67
2018-09-20T21:41:01.954Z,4.47
2018-09-20T21:43:31.539Z,5.20
2018-09-20T21:46:00.188Z,4.90
2018-09-20T21:48:28.974Z,4.63
2018-09-20T21:50:57.668Z,4.80
2018-09-20T21:53:26.369Z,4.60
2018-09-20T21:55:55.061Z,5.03
2018-09-20T21:58:23.732Z,4.43
2018-09-20T22:00:56.554Z,4.00
2018-09-20T22:03:25.209Z,3.97
2018-09-20T22:05:53.828Z,4.33
2018-09-20T22:08:22.978Z,4.10
2018-09-20T22:10:51.690Z,4.10
2018-09-20T22:13:20.332Z,4.03
2018-09-20T22:15:48.975Z,4.17
2018-09-20T22:18:17.703Z,4.37
2018-09-20T22:20:46.479Z,5.10
2018-09-20T22:23:15.230Z,4.67
2018-09-20T22:25:43.927Z,4.30
2018-09-20T22:28:12.633Z,4.00
2018-09-20T22:30:41.875Z,3.77
2018-09-20T22:33:10.577Z,3.73
2018-09-20T22:35:39.325Z,3.87
2018-09-20T22:38:07.990Z,3.30
2018-09-20T22:40:36.688Z,4.30
2018-09-20T22:43:05.454Z,3.93
2018-09-20T22:45:34.147Z,4.27
2018-09-20T22:48:02.794Z,3.73
2018-09-20T22:50:31.464Z,3.87
2018-09-20T22:53:00.096Z,4.07
2018-09-20T22:55:28.909Z,3.87
2018-09-20T22:57:57.525Z,3.90
2018-09-20T23:00:26.164Z,3.70
2018-09-20T23:02:56.164Z,3.87
2018-09-20T23:05:25.010Z,4.00
2018-09-20T23:07:53.688Z,3.63
2018-09-20T23:10:22.457Z,3.87
2018-09-20T23:12:51.151Z,3.93
2018-09-20T23:15:19.886Z,3.20
2018-09-20T23:17:48.579Z,3.97
2018-09-20T23:20:17.312Z,3.50
2018-09-20T23:22:46.026Z,3.93
2018-09-20T23:25:14.689Z,3.90
2018-09-20T23:27:43.429Z,3.50
2018-09-20T23:30:12.111Z,4.00
2018-09-20T23:32:41.096Z,3.30
2018-09-20T23:35:09.833Z,4.20
2018-09-20T23:37:38.543Z,4.10
2018-09-20T23:40:07.311Z,4.10
2018-09-20T23:42:36.032Z,3.83
2018-09-20T23:45:04.785Z,3.93
2018-09-20T23:47:33.451Z,4.10
2018-09-20T23:50:02.184Z,4.33
2018-09-20T23:52:30.866Z,3.37
2018-09-20T23:54:59.557Z,3.53
2018-09-20T23:57:28.237Z,3.90
2018-09-20T23:59:56.919Z,4.00
